sensor_id;sensor_type;location;lat;lon;timestamp;P1;durP1;ratioP1;P2;durP2;ratioP2
23952;SDS011;12163;49.316;6.092;2022-11-13T00:00:52;65.72;;;30.23;;
23952;SDS011;12163;49.316;6.092;2022-11-13T00:03:19;88.63;;;34.58;;
23952;SDS011;12163;49.316;6.092;2022-11-13T00:05:46;86.57;;;33.38;;
23952;SDS011;12163;49.316;6.092;2022-11-13T00:08:12;90.22;;;34.25;;
23952;SDS011;12163;49.316;6.092;2022-11-13T00:10:39;85.47;;;34.17;;
23952;SDS011;12163;49.316;6.092;2022-11-13T00:13:06;87.72;;;35.00;;
23952;SDS011;12163;49.316;6.092;2022-11-13T00:15:32;82.28;;;34.97;;
23952;SDS011;12163;49.316;6.092;2022-11-13T00:17:59;77.95;;;33.47;;
23952;SDS011;12163;49.316;6.092;2022-11-13T00:20:27;94.38;;;34.50;;
23952;SDS011;12163;49.316;6.092;2022-11-13T00:22:54;91.13;;;33.47;;
23952;SDS011;12163;49.316;6.092;2022-11-13T00:25:21;90.60;;;33.10;;
23952;SDS011;12163;49.316;6.092;2022-11-13T00:27:48;71.18;;;31.17;;
23952;SDS011;12163;49.316;6.092;2022-11-13T00:30:14;69.28;;;30.38;;
23952;SDS011;12163;49.316;6.092;2022-11-13T00:32:44;84.22;;;29.95;;
23952;SDS011;12163;49.316;6.092;2022-11-13T00:35:11;79.20;;;30.02;;
23952;SDS011;12163;49.316;6.092;2022-11-13T00:37:37;66.40;;;29.35;;
23952;SDS011;12163;49.316;6.092;2022-11-13T00:40:04;67.28;;;28.73;;
23952;SDS011;12163;49.316;6.092;2022-11-13T00:42:31;67.47;;;27.63;;
23952;SDS011;12163;49.316;6.092;2022-11-13T00:44:58;67.43;;;28.98;;
23952;SDS011;12163;49.316;6.092;2022-11-13T00:47:24;68.07;;;29.20;;
23952;SDS011;12163;49.316;6.092;2022-11-13T00:49:51;64.15;;;27.30;;
23952;SDS011;12163;49.316;6.092;2022-11-13T00:52:17;61.42;;;28.77;;
23952;SDS011;12163;49.316;6.092;2022-11-13T00:54:44;59.38;;;26.17;;
23952;SDS011;12163;49.316;6.092;2022-11-13T00:57:10;58.90;;;26.65;;
23952;SDS011;12163;49.316;6.092;2022-11-13T00:59:37;56.20;;;26.50;;
23952;SDS011;12163;49.316;6.092;2022-11-13T01:02:03;63.05;;;27.40;;
23952;SDS011;12163;49.316;6.092;2022-11-13T01:04:30;68.55;;;29.48;;
23952;SDS011;12163;49.316;6.092;2022-11-13T01:06:57;57.47;;;27.20;;
23952;SDS011;12163;49.316;6.092;2022-11-13T01:09:23;65.35;;;26.98;;
23952;SDS011;12163;49.316;6.092;2022-11-13T01:11:50;53.05;;;25.60;;
23952;SDS011;12163;49.316;6.092;2022-11-13T01:14:16;56.10;;;25.60;;
23952;SDS011;12163;49.316;6.092;2022-11-13T01:16:43;51.33;;;24.33;;
23952;SDS011;12163;49.316;6.092;2022-11-13T01:19:09;50.35;;;23.05;;
23952;SDS011;12163;49.316;6.092;2022-11-13T01:21:36;47.88;;;22.58;;
23952;SDS011;12163;49.316;6.092;2022-11-13T01:24:02;55.60;;;22.90;;
23952;SDS011;12163;49.316;6.092;2022-11-13T01:26:29;44.75;;;22.98;;
23952;SDS011;12163;49.316;6.092;2022-11-13T01:28:57;43.10;;;21.98;;
23952;SDS011;12163;49.316;6.092;2022-11-13T01:31:26;63.60;;;24.13;;
23952;SDS011;12163;49.316;6.092;2022-11-13T01:33:54;45.72;;;23.20;;
23952;SDS011;12163;49.316;6.092;2022-11-13T01:36:23;54.35;;;25.15;;
23952;SDS011;12163;49.316;6.092;2022-11-13T01:38:51;48.90;;;23.00;;
23952;SDS011;12163;49.316;6.092;2022-11-13T01:41:21;50.40;;;24.17;;
23952;SDS011;12163;49.316;6.092;2022-11-13T01:43:51;52.17;;;24.60;;
23952;SDS011;12163;49.316;6.092;2022-11-13T01:51:40;72.38;;;27.08;;
23952;SDS011;12163;49.316;6.092;2022-11-13T01:54:12;68.85;;;27.58;;
23952;SDS011;12163;49.316;6.092;2022-11-13T01:56:42;57.70;;;26.02;;
23952;SDS011;12163;49.316;6.092;2022-11-13T01:59:11;64.35;;;27.02;;
23952;SDS011;12163;49.316;6.092;2022-11-13T02:01:40;65.70;;;27.88;;
23952;SDS011;12163;49.316;6.092;2022-11-13T02:04:07;61.08;;;27.02;;
23952;SDS011;12163;49.316;6.092;2022-11-13T02:07:18;55.55;;;26.48;;
23952;SDS011;12163;49.316;6.092;2022-11-13T02:09:26;64.80;;;27.23;;
23952;SDS011;12163;49.316;6.092;2022-11-13T02:12:02;56.53;;;27.40;;
23952;SDS011;12163;49.316;6.092;2022-11-13T02:14:35;61.97;;;28.30;;
23952;SDS011;12163;49.316;6.092;2022-11-13T02:17:06;64.90;;;28.15;;
23952;SDS011;12163;49.316;6.092;2022-11-13T02:19:40;61.10;;;27.58;;
23952;SDS011;12163;49.316;6.092;2022-11-13T02:22:14;57.33;;;25.75;;
23952;SDS011;12163;49.316;6.092;2022-11-13T02:27:17;71.18;;;26.73;;
23952;SDS011;12163;49.316;6.092;2022-11-13T02:29:49;71.63;;;26.60;;
23952;SDS011;12163;49.316;6.092;2022-11-13T02:32:15;57.47;;;25.98;;
23952;SDS011;12163;49.316;6.092;2022-11-13T02:34:42;57.97;;;26.48;;
23952;SDS011;12163;49.316;6.092;2022-11-13T02:37:08;56.28;;;25.38;;
23952;SDS011;12163;49.316;6.092;2022-11-13T02:39:35;60.58;;;25.45;;
23952;SDS011;12163;49.316;6.092;2022-11-13T02:42:02;50.45;;;25.10;;
23952;SDS011;12163;49.316;6.092;2022-11-13T02:44:28;47.78;;;24.17;;
23952;SDS011;12163;49.316;6.092;2022-11-13T02:46:55;53.25;;;24.48;;
23952;SDS011;12163;49.316;6.092;2022-11-13T02:49:21;52.65;;;24.13;;
23952;SDS011;12163;49.316;6.092;2022-11-13T02:51:48;48.55;;;23.73;;
23952;SDS011;12163;49.316;6.092;2022-11-13T02:54:14;49.70;;;24.35;;
23952;SDS011;12163;49.316;6.092;2022-11-13T02:56:42;48.95;;;23.27;;
23952;SDS011;12163;49.316;6.092;2022-11-13T02:59:09;59.22;;;24.42;;
23952;SDS011;12163;49.316;6.092;2022-11-13T03:01:35;50.78;;;24.35;;
23952;SDS011;12163;49.316;6.092;2022-11-13T03:04:02;53.40;;;24.35;;
23952;SDS011;12163;49.316;6.092;2022-11-13T03:06:28;49.17;;;23.48;;
23952;SDS011;12163;49.316;6.092;2022-11-13T03:08:55;49.78;;;23.48;;
23952;SDS011;12163;49.316;6.092;2022-11-13T03:11:22;48.47;;;24.05;;
23952;SDS011;12163;49.316;6.092;2022-11-13T03:13:48;52.85;;;25.05;;
23952;SDS011;12163;49.316;6.092;2022-11-13T03:16:15;64.03;;;25.73;;
23952;SDS011;12163;49.316;6.092;2022-11-13T03:18:42;51.13;;;24.63;;
23952;SDS011;12163;49.316;6.092;2022-11-13T03:21:10;66.60;;;26.35;;
23952;SDS011;12163;49.316;6.092;2022-11-13T03:23:39;55.90;;;26.20;;
23952;SDS011;12163;49.316;6.092;2022-11-13T03:26:07;58.45;;;26.27;;
23952;SDS011;12163;49.316;6.092;2022-11-13T03:28:36;57.92;;;27.65;;
23952;SDS011;12163;49.316;6.092;2022-11-13T03:31:03;57.00;;;26.50;;
23952;SDS011;12163;49.316;6.092;2022-11-13T03:33:30;64.20;;;27.63;;
23952;SDS011;12163;49.316;6.092;2022-11-13T03:35:57;67.40;;;28.15;;
23952;SDS011;12163;49.316;6.092;2022-11-13T03:38:23;54.78;;;27.40;;
23952;SDS011;12163;49.316;6.092;2022-11-13T03:40:51;58.55;;;26.40;;
23952;SDS011;12163;49.316;6.092;2022-11-13T03:43:17;73.55;;;27.70;;
23952;SDS011;12163;49.316;6.092;2022-11-13T03:45:45;95.45;;;29.40;;
23952;SDS011;12163;49.316;6.092;2022-11-13T03:48:13;67.60;;;28.33;;
23952;SDS011;12163;49.316;6.092;2022-11-13T03:50:41;75.80;;;29.45;;
23952;SDS011;12163;49.316;6.092;2022-11-13T03:53:11;71.78;;;31.60;;
23952;SDS011;12163;49.316;6.092;2022-11-13T03:55:38;79.00;;;30.65;;
23952;SDS011;12163;49.316;6.092;2022-11-13T03:58:05;75.00;;;31.60;;
23952;SDS011;12163;49.316;6.092;2022-11-13T04:00:32;73.88;;;31.42;;
23952;SDS011;12163;49.316;6.092;2022-11-13T04:02:58;72.38;;;29.80;;
23952;SDS011;12163;49.316;6.092;2022-11-13T04:05:25;78.85;;;32.55;;
23952;SDS011;12163;49.316;6.092;2022-11-13T04:07:52;69.13;;;30.40;;
23952;SDS011;12163;49.316;6.092;2022-11-13T04:10:19;79.05;;;32.53;;
23952;SDS011;12163;49.316;6.092;2022-11-13T04:12:46;81.97;;;33.92;;
23952;SDS011;12163;49.316;6.092;2022-11-13T04:15:12;75.40;;;32.85;;
23952;SDS011;12163;49.316;6.092;2022-11-13T04:17:39;78.20;;;33.30;;
23952;SDS011;12163;49.316;6.092;2022-11-13T04:20:06;76.70;;;32.15;;
23952;SDS011;12163;49.316;6.092;2022-11-13T04:22:33;84.55;;;33.80;;
23952;SDS011;12163;49.316;6.092;2022-11-13T04:25:00;77.30;;;33.80;;
23952;SDS011;12163;49.316;6.092;2022-11-13T04:27:27;91.00;;;32.80;;
23952;SDS011;12163;49.316;6.092;2022-11-13T04:29:53;80.93;;;34.60;;
23952;SDS011;12163;49.316;6.092;2022-11-13T04:32:20;74.07;;;32.47;;
23952;SDS011;12163;49.316;6.092;2022-11-13T04:34:46;83.47;;;34.35;;
23952;SDS011;12163;49.316;6.092;2022-11-13T04:37:13;70.95;;;32.67;;
23952;SDS011;12163;49.316;6.092;2022-11-13T04:39:39;80.38;;;33.83;;
23952;SDS011;12163;49.316;6.092;2022-11-13T04:42:07;76.13;;;32.58;;
23952;SDS011;12163;49.316;6.092;2022-11-13T04:44:53;69.10;;;32.33;;
23952;SDS011;12163;49.316;6.092;2022-11-13T04:47:20;58.10;;;29.50;;
23952;SDS011;12163;49.316;6.092;2022-11-13T04:49:46;58.08;;;28.75;;
23952;SDS011;12163;49.316;6.092;2022-11-13T04:52:13;52.70;;;27.50;;
23952;SDS011;12163;49.316;6.092;2022-11-13T04:54:39;42.47;;;25.88;;
23952;SDS011;12163;49.316;6.092;2022-11-13T04:57:06;48.03;;;25.63;;
23952;SDS011;12163;49.316;6.092;2022-11-13T04:59:32;48.47;;;26.02;;
23952;SDS011;12163;49.316;6.092;2022-11-13T05:01:59;43.55;;;24.90;;
23952;SDS011;12163;49.316;6.092;2022-11-13T05:04:26;52.35;;;26.63;;
23952;SDS011;12163;49.316;6.092;2022-11-13T05:06:52;40.38;;;23.80;;
23952;SDS011;12163;49.316;6.092;2022-11-13T05:09:19;40.53;;;23.65;;
23952;SDS011;12163;49.316;6.092;2022-11-13T05:11:45;40.05;;;23.92;;
23952;SDS011;12163;49.316;6.092;2022-11-13T05:14:12;37.60;;;23.58;;
23952;SDS011;12163;49.316;6.092;2022-11-13T05:16:39;39.20;;;23.08;;
23952;SDS011;12163;49.316;6.092;2022-11-13T05:19:06;40.33;;;24.63;;
23952;SDS011;12163;49.316;6.092;2022-11-13T05:21:33;44.10;;;24.35;;
23952;SDS011;12163;49.316;6.092;2022-11-13T05:24:01;40.38;;;23.45;;
23952;SDS011;12163;49.316;6.092;2022-11-13T05:26:28;35.35;;;22.73;;
23952;SDS011;12163;49.316;6.092;2022-11-13T05:28:56;45.95;;;26.00;;
23952;SDS011;12163;49.316;6.092;2022-11-13T05:31:24;39.80;;;25.13;;
23952;SDS011;12163;49.316;6.092;2022-11-13T05:33:52;38.13;;;25.25;;
23952;SDS011;12163;49.316;6.092;2022-11-13T05:36:19;49.92;;;27.10;;
23952;SDS011;12163;49.316;6.092;2022-11-13T05:38:47;43.50;;;24.90;;
23952;SDS011;12163;49.316;6.092;2022-11-13T05:41:15;33.95;;;21.65;;
23952;SDS011;12163;49.316;6.092;2022-11-13T05:43:46;33.10;;;20.20;;
23952;SDS011;12163;49.316;6.092;2022-11-13T05:46:23;30.20;;;19.92;;
23952;SDS011;12163;49.316;6.092;2022-11-13T05:48:53;27.90;;;18.20;;
23952;SDS011;12163;49.316;6.092;2022-11-13T05:51:22;30.15;;;18.33;;
23952;SDS011;12163;49.316;6.092;2022-11-13T05:53:51;27.95;;;17.48;;
23952;SDS011;12163;49.316;6.092;2022-11-13T05:56:20;27.23;;;17.58;;
23952;SDS011;12163;49.316;6.092;2022-11-13T05:58:49;29.08;;;18.05;;
23952;SDS011;12163;49.316;6.092;2022-11-13T06:03:43;22.25;;;15.40;;
23952;SDS011;12163;49.316;6.092;2022-11-13T06:06:12;18.08;;;12.95;;
23952;SDS011;12163;49.316;6.092;2022-11-13T06:08:43;18.27;;;13.73;;
23952;SDS011;12163;49.316;6.092;2022-11-13T06:11:11;17.70;;;12.15;;
23952;SDS011;12163;49.316;6.092;2022-11-13T06:13:39;14.90;;;11.30;;
23952;SDS011;12163;49.316;6.092;2022-11-13T06:16:07;17.17;;;12.57;;
23952;SDS011;12163;49.316;6.092;2022-11-13T06:18:36;22.75;;;13.82;;
23952;SDS011;12163;49.316;6.092;2022-11-13T06:21:03;22.48;;;13.75;;
23952;SDS011;12163;49.316;6.092;2022-11-13T06:23:31;19.23;;;14.13;;
23952;SDS011;12163;49.316;6.092;2022-11-13T06:26:09;22.25;;;14.43;;
23952;SDS011;12163;49.316;6.092;2022-11-13T06:28:44;17.70;;;12.30;;
23952;SDS011;12163;49.316;6.092;2022-11-13T06:31:29;15.70;;;11.25;;
23952;SDS011;12163;49.316;6.092;2022-11-13T06:33:57;16.60;;;11.80;;
23952;SDS011;12163;49.316;6.092;2022-11-13T06:36:29;15.35;;;11.35;;
23952;SDS011;12163;49.316;6.092;2022-11-13T06:38:57;14.60;;;9.82;;
23952;SDS011;12163;49.316;6.092;2022-11-13T06:41:25;14.35;;;10.90;;
23952;SDS011;12163;49.316;6.092;2022-11-13T06:43:54;14.85;;;9.30;;
23952;SDS011;12163;49.316;6.092;2022-11-13T06:46:28;12.60;;;9.10;;
23952;SDS011;12163;49.316;6.092;2022-11-13T06:48:56;20.10;;;12.20;;
23952;SDS011;12163;49.316;6.092;2022-11-13T06:51:25;19.38;;;12.60;;
23952;SDS011;12163;49.316;6.092;2022-11-13T06:53:53;14.45;;;10.85;;
23952;SDS011;12163;49.316;6.092;2022-11-13T06:56:20;19.52;;;13.32;;
23952;SDS011;12163;49.316;6.092;2022-11-13T06:58:47;21.30;;;12.40;;
23952;SDS011;12163;49.316;6.092;2022-11-13T07:01:21;16.13;;;10.95;;
23952;SDS011;12163;49.316;6.092;2022-11-13T07:03:49;19.60;;;11.95;;
23952;SDS011;12163;49.316;6.092;2022-11-13T07:06:20;23.13;;;11.93;;
23952;SDS011;12163;49.316;6.092;2022-11-13T07:08:48;29.85;;;14.25;;
23952;SDS011;12163;49.316;6.092;2022-11-13T07:11:16;18.27;;;12.38;;
23952;SDS011;12163;49.316;6.092;2022-11-13T07:13:47;24.35;;;13.30;;
23952;SDS011;12163;49.316;6.092;2022-11-13T07:16:14;31.27;;;13.45;;
23952;SDS011;12163;49.316;6.092;2022-11-13T07:18:50;36.47;;;15.38;;
23952;SDS011;12163;49.316;6.092;2022-11-13T07:21:18;35.40;;;15.48;;
23952;SDS011;12163;49.316;6.092;2022-11-13T07:23:46;31.05;;;14.60;;
23952;SDS011;12163;49.316;6.092;2022-11-13T07:26:14;42.33;;;16.83;;
23952;SDS011;12163;49.316;6.092;2022-11-13T07:28:41;36.33;;;16.58;;
23952;SDS011;12163;49.316;6.092;2022-11-13T07:31:08;25.20;;;15.73;;
23952;SDS011;12163;49.316;6.092;2022-11-13T07:33:37;24.45;;;15.40;;
23952;SDS011;12163;49.316;6.092;2022-11-13T07:36:04;30.98;;;16.30;;
23952;SDS011;12163;49.316;6.092;2022-11-13T07:38:31;27.73;;;16.02;;
23952;SDS011;12163;49.316;6.092;2022-11-13T07:40:57;26.67;;;16.00;;
23952;SDS011;12163;49.316;6.092;2022-11-13T07:43:25;25.92;;;15.95;;
23952;SDS011;12163;49.316;6.092;2022-11-13T07:45:52;27.38;;;16.00;;
23952;SDS011;12163;49.316;6.092;2022-11-13T07:48:20;27.58;;;17.05;;
23952;SDS011;12163;49.316;6.092;2022-11-13T07:50:48;29.88;;;17.42;;
23952;SDS011;12163;49.316;6.092;2022-11-13T07:53:15;24.90;;;17.15;;
23952;SDS011;12163;49.316;6.092;2022-11-13T07:55:42;33.70;;;17.90;;
23952;SDS011;12163;49.316;6.092;2022-11-13T07:58:08;25.75;;;17.15;;
23952;SDS011;12163;49.316;6.092;2022-11-13T08:00:35;25.50;;;15.50;;
23952;SDS011;12163;49.316;6.092;2022-11-13T08:03:06;22.92;;;15.23;;
23952;SDS011;12163;49.316;6.092;2022-11-13T08:08:01;23.17;;;15.07;;
23952;SDS011;12163;49.316;6.092;2022-11-13T08:10:28;24.85;;;15.90;;
23952;SDS011;12163;49.316;6.092;2022-11-13T08:12:59;23.85;;;14.00;;
23952;SDS011;12163;49.316;6.092;2022-11-13T08:15:28;21.58;;;14.18;;
23952;SDS011;12163;49.316;6.092;2022-11-13T08:17:55;20.80;;;14.55;;
23952;SDS011;12163;49.316;6.092;2022-11-13T08:20:23;21.42;;;14.60;;
23952;SDS011;12163;49.316;6.092;2022-11-13T08:22:51;23.48;;;14.52;;
23952;SDS011;12163;49.316;6.092;2022-11-13T08:25:17;23.88;;;14.60;;
23952;SDS011;12163;49.316;6.092;2022-11-13T08:27:44;24.23;;;15.13;;
23952;SDS011;12163;49.316;6.092;2022-11-13T08:30:11;21.30;;;15.43;;
23952;SDS011;12163;49.316;6.092;2022-11-13T08:32:38;23.15;;;14.73;;
23952;SDS011;12163;49.316;6.092;2022-11-13T08:35:05;22.33;;;14.35;;
23952;SDS011;12163;49.316;6.092;2022-11-13T08:37:32;25.75;;;15.00;;
23952;SDS011;12163;49.316;6.092;2022-11-13T08:39:58;23.10;;;15.43;;
23952;SDS011;12163;49.316;6.092;2022-11-13T08:42:25;23.58;;;15.23;;
23952;SDS011;12163;49.316;6.092;2022-11-13T08:44:52;25.85;;;15.30;;
23952;SDS011;12163;49.316;6.092;2022-11-13T08:47:18;24.67;;;15.15;;
23952;SDS011;12163;49.316;6.092;2022-11-13T08:49:45;27.40;;;16.10;;
23952;SDS011;12163;49.316;6.092;2022-11-13T08:52:11;22.50;;;15.45;;
23952;SDS011;12163;49.316;6.092;2022-11-13T08:54:38;25.30;;;15.60;;
23952;SDS011;12163;49.316;6.092;2022-11-13T08:57:04;22.50;;;16.25;;
23952;SDS011;12163;49.316;6.092;2022-11-13T08:59:31;21.58;;;14.95;;
23952;SDS011;12163;49.316;6.092;2022-11-13T09:01:58;21.33;;;14.10;;
23952;SDS011;12163;49.316;6.092;2022-11-13T09:04:25;21.50;;;14.13;;
23952;SDS011;12163;49.316;6.092;2022-11-13T09:06:52;20.08;;;13.98;;
23952;SDS011;12163;49.316;6.092;2022-11-13T09:09:19;20.88;;;14.25;;
23952;SDS011;12163;49.316;6.092;2022-11-13T09:11:47;18.30;;;13.65;;
23952;SDS011;12163;49.316;6.092;2022-11-13T09:14:13;18.77;;;13.80;;
23952;SDS011;12163;49.316;6.092;2022-11-13T09:16:40;18.42;;;12.68;;
23952;SDS011;12163;49.316;6.092;2022-11-13T09:19:07;18.60;;;13.13;;
23952;SDS011;12163;49.316;6.092;2022-11-13T09:21:34;19.75;;;13.18;;
23952;SDS011;12163;49.316;6.092;2022-11-13T09:24:00;16.17;;;12.50;;
23952;SDS011;12163;49.316;6.092;2022-11-13T09:26:27;20.35;;;13.52;;
23952;SDS011;12163;49.316;6.092;2022-11-13T09:28:53;17.83;;;13.60;;
23952;SDS011;12163;49.316;6.092;2022-11-13T09:31:20;20.60;;;13.55;;
23952;SDS011;12163;49.316;6.092;2022-11-13T09:33:46;18.90;;;13.98;;
23952;SDS011;12163;49.316;6.092;2022-11-13T09:36:14;20.00;;;13.35;;
23952;SDS011;12163;49.316;6.092;2022-11-13T09:38:41;16.70;;;13.48;;
23952;SDS011;12163;49.316;6.092;2022-11-13T09:41:12;19.38;;;12.80;;
23952;SDS011;12163;49.316;6.092;2022-11-13T09:43:44;20.23;;;13.13;;
23952;SDS011;12163;49.316;6.092;2022-11-13T09:46:37;17.75;;;12.20;;
23952;SDS011;12163;49.316;6.092;2022-11-13T09:51:45;14.38;;;10.98;;
23952;SDS011;12163;49.316;6.092;2022-11-13T09:54:32;14.98;;;11.43;;
23952;SDS011;12163;49.316;6.092;2022-11-13T09:59:45;14.63;;;10.75;;
23952;SDS011;12163;49.316;6.092;2022-11-13T10:11:07;12.10;;;8.82;;
23952;SDS011;12163;49.316;6.092;2022-11-13T10:13:58;13.07;;;9.80;;
23952;SDS011;12163;49.316;6.092;2022-11-13T10:16:32;14.52;;;10.23;;
23952;SDS011;12163;49.316;6.092;2022-11-13T10:22:13;13.15;;;10.52;;
23952;SDS011;12163;49.316;6.092;2022-11-13T10:25:12;18.48;;;11.48;;
23952;SDS011;12163;49.316;6.092;2022-11-13T10:27:43;15.73;;;10.68;;
23952;SDS011;12163;49.316;6.092;2022-11-13T10:30:15;13.05;;;9.35;;
23952;SDS011;12163;49.316;6.092;2022-11-13T10:32:43;12.50;;;8.57;;
23952;SDS011;12163;49.316;6.092;2022-11-13T10:40:34;14.05;;;8.90;;
23952;SDS011;12163;49.316;6.092;2022-11-13T10:43:24;11.23;;;8.98;;
23952;SDS011;12163;49.316;6.092;2022-11-13T10:45:55;11.00;;;8.77;;
23952;SDS011;12163;49.316;6.092;2022-11-13T10:48:32;14.45;;;8.77;;
23952;SDS011;12163;49.316;6.092;2022-11-13T10:51:02;11.57;;;8.75;;
23952;SDS011;12163;49.316;6.092;2022-11-13T10:53:40;12.63;;;8.13;;
23952;SDS011;12163;49.316;6.092;2022-11-13T10:56:12;10.95;;;8.20;;
23952;SDS011;12163;49.316;6.092;2022-11-13T10:58:39;10.88;;;7.72;;
23952;SDS011;12163;49.316;6.092;2022-11-13T11:01:13;10.10;;;7.15;;
23952;SDS011;12163;49.316;6.092;2022-11-13T11:03:48;8.32;;;6.72;;
23952;SDS011;12163;49.316;6.092;2022-11-13T11:06:15;9.85;;;6.43;;
23952;SDS011;12163;49.316;6.092;2022-11-13T11:08:42;9.88;;;7.20;;
23952;SDS011;12163;49.316;6.092;2022-11-13T11:11:13;11.93;;;6.60;;
23952;SDS011;12163;49.316;6.092;2022-11-13T11:14:43;7.97;;;6.22;;
23952;SDS011;12163;49.316;6.092;2022-11-13T11:16:55;8.35;;;5.70;;
23952;SDS011;12163;49.316;6.092;2022-11-13T11:19:27;7.15;;;5.45;;
23952;SDS011;12163;49.316;6.092;2022-11-13T11:22:01;7.95;;;5.80;;
23952;SDS011;12163;49.316;6.092;2022-11-13T11:24:35;11.00;;;6.10;;
23952;SDS011;12163;49.316;6.092;2022-11-13T11:30:23;8.50;;;6.00;;
23952;SDS011;12163;49.316;6.092;2022-11-13T11:32:48;8.40;;;5.80;;
23952;SDS011;12163;49.316;6.092;2022-11-13T11:35:17;7.05;;;5.40;;
23952;SDS011;12163;49.316;6.092;2022-11-13T11:38:32;9.53;;;5.67;;
23952;SDS011;12163;49.316;6.092;2022-11-13T11:40:42;6.53;;;5.43;;
23952;SDS011;12163;49.316;6.092;2022-11-13T11:43:18;8.27;;;6.00;;
23952;SDS011;12163;49.316;6.092;2022-11-13T11:46:07;10.15;;;5.70;;
23952;SDS011;12163;49.316;6.092;2022-11-13T11:48:38;9.45;;;6.00;;
23952;SDS011;12163;49.316;6.092;2022-11-13T12:02:17;9.48;;;5.80;;
23952;SDS011;12163;49.316;6.092;2022-11-13T12:05:15;10.82;;;5.60;;
23952;SDS011;12163;49.316;6.092;2022-11-13T12:10:45;8.52;;;4.95;;
23952;SDS011;12163;49.316;6.092;2022-11-13T12:13:21;9.90;;;5.25;;
23952;SDS011;12163;49.316;6.092;2022-11-13T12:21:23;8.52;;;5.35;;
23952;SDS011;12163;49.316;6.092;2022-11-13T12:26:43;6.32;;;4.72;;
23952;SDS011;12163;49.316;6.092;2022-11-13T12:29:21;7.10;;;5.00;;
23952;SDS011;12163;49.316;6.092;2022-11-13T12:35:16;7.22;;;4.80;;
23952;SDS011;12163;49.316;6.092;2022-11-13T12:46:07;6.85;;;4.60;;
23952;SDS011;12163;49.316;6.092;2022-11-13T12:48:37;8.52;;;5.00;;
23952;SDS011;12163;49.316;6.092;2022-11-13T12:51:07;10.07;;;4.45;;
23952;SDS011;12163;49.316;6.092;2022-11-13T12:53:42;8.30;;;4.45;;
23952;SDS011;12163;49.316;6.092;2022-11-13T13:02:02;5.78;;;4.20;;
23952;SDS011;12163;49.316;6.092;2022-11-13T13:05:13;5.85;;;3.90;;
23952;SDS011;12163;49.316;6.092;2022-11-13T13:10:48;5.05;;;3.67;;
23952;SDS011;12163;49.316;6.092;2022-11-13T13:13:43;4.87;;;4.20;;
23952;SDS011;12163;49.316;6.092;2022-11-13T13:16:25;5.65;;;4.15;;
23952;SDS011;12163;49.316;6.092;2022-11-13T13:19:04;5.90;;;4.10;;
23952;SDS011;12163;49.316;6.092;2022-11-13T13:21:49;5.72;;;4.20;;
23952;SDS011;12163;49.316;6.092;2022-11-13T13:24:27;7.63;;;4.07;;
23952;SDS011;12163;49.316;6.092;2022-11-13T13:26:55;5.93;;;4.18;;
23952;SDS011;12163;49.316;6.092;2022-11-13T13:29:23;8.15;;;4.35;;
23952;SDS011;12163;49.316;6.092;2022-11-13T13:31:53;7.65;;;3.95;;
23952;SDS011;12163;49.316;6.092;2022-11-13T13:48:18;7.20;;;3.97;;
23952;SDS011;12163;49.316;6.092;2022-11-13T13:50:47;5.95;;;3.78;;
23952;SDS011;12163;49.316;6.092;2022-11-13T13:53:17;9.05;;;3.63;;
23952;SDS011;12163;49.316;6.092;2022-11-13T13:55:55;6.22;;;3.50;;
23952;SDS011;12163;49.316;6.092;2022-11-13T13:58:34;5.95;;;3.58;;
23952;SDS011;12163;49.316;6.092;2022-11-13T14:01:03;4.47;;;3.58;;
23952;SDS011;12163;49.316;6.092;2022-11-13T14:06:21;7.70;;;4.05;;
23952;SDS011;12163;49.316;6.092;2022-11-13T14:08:49;9.77;;;3.70;;
23952;SDS011;12163;49.316;6.092;2022-11-13T14:11:23;3.92;;;3.42;;
23952;SDS011;12163;49.316;6.092;2022-11-13T14:13:52;4.65;;;3.47;;
23952;SDS011;12163;49.316;6.092;2022-11-13T14:16:19;4.35;;;3.35;;
23952;SDS011;12163;49.316;6.092;2022-11-13T14:18:46;4.78;;;3.65;;
23952;SDS011;12163;49.316;6.092;2022-11-13T14:21:16;7.20;;;3.67;;
23952;SDS011;12163;49.316;6.092;2022-11-13T14:23:48;5.50;;;3.67;;
23952;SDS011;12163;49.316;6.092;2022-11-13T14:26:17;7.20;;;3.40;;
23952;SDS011;12163;49.316;6.092;2022-11-13T14:28:46;4.40;;;3.25;;
23952;SDS011;12163;49.316;6.092;2022-11-13T14:31:18;5.35;;;3.92;;
23952;SDS011;12163;49.316;6.092;2022-11-13T14:33:50;6.38;;;3.47;;
23952;SDS011;12163;49.316;6.092;2022-11-13T14:36:27;4.70;;;3.35;;
23952;SDS011;12163;49.316;6.092;2022-11-13T14:38:57;5.43;;;3.70;;
23952;SDS011;12163;49.316;6.092;2022-11-13T14:41:32;6.07;;;3.67;;
23952;SDS011;12163;49.316;6.092;2022-11-13T14:44:05;8.93;;;3.38;;
23952;SDS011;12163;49.316;6.092;2022-11-13T14:46:41;6.93;;;3.38;;
23952;SDS011;12163;49.316;6.092;2022-11-13T14:49:26;4.30;;;3.42;;
23952;SDS011;12163;49.316;6.092;2022-11-13T14:51:53;5.20;;;3.65;;
23952;SDS011;12163;49.316;6.092;2022-11-13T14:54:31;7.25;;;3.65;;
23952;SDS011;12163;49.316;6.092;2022-11-13T14:57:22;4.25;;;3.28;;
23952;SDS011;12163;49.316;6.092;2022-11-13T14:59:49;7.50;;;3.33;;
23952;SDS011;12163;49.316;6.092;2022-11-13T15:02:15;7.93;;;3.25;;
23952;SDS011;12163;49.316;6.092;2022-11-13T15:04:42;4.97;;;2.95;;
23952;SDS011;12163;49.316;6.092;2022-11-13T15:10:08;7.82;;;3.70;;
23952;SDS011;12163;49.316;6.092;2022-11-13T15:12:38;6.88;;;3.45;;
23952;SDS011;12163;49.316;6.092;2022-11-13T15:15:05;5.75;;;3.88;;
23952;SDS011;12163;49.316;6.092;2022-11-13T15:17:34;7.13;;;4.30;;
23952;SDS011;12163;49.316;6.092;2022-11-13T15:20:01;9.50;;;5.57;;
23952;SDS011;12163;49.316;6.092;2022-11-13T15:22:34;9.20;;;6.32;;
23952;SDS011;12163;49.316;6.092;2022-11-13T15:25:02;8.45;;;4.97;;
23952;SDS011;12163;49.316;6.092;2022-11-13T15:27:28;8.02;;;4.53;;
23952;SDS011;12163;49.316;6.092;2022-11-13T15:29:55;7.00;;;4.30;;
23952;SDS011;12163;49.316;6.092;2022-11-13T15:32:22;6.60;;;4.00;;
23952;SDS011;12163;49.316;6.092;2022-11-13T15:34:48;8.27;;;3.78;;
23952;SDS011;12163;49.316;6.092;2022-11-13T15:37:15;5.13;;;3.50;;
23952;SDS011;12163;49.316;6.092;2022-11-13T15:39:42;5.25;;;3.38;;
23952;SDS011;12163;49.316;6.092;2022-11-13T15:42:13;14.02;;;7.28;;
23952;SDS011;12163;49.316;6.092;2022-11-13T15:44:42;8.35;;;4.78;;
23952;SDS011;12163;49.316;6.092;2022-11-13T15:47:17;6.40;;;4.07;;
23952;SDS011;12163;49.316;6.092;2022-11-13T15:49:45;6.38;;;3.30;;
23952;SDS011;12163;49.316;6.092;2022-11-13T15:52:33;5.65;;;3.50;;
23952;SDS011;12163;49.316;6.092;2022-11-13T15:55:03;4.90;;;2.50;;
23952;SDS011;12163;49.316;6.092;2022-11-13T15:57:40;7.13;;;3.58;;
23952;SDS011;12163;49.316;6.092;2022-11-13T16:02:41;4.45;;;3.00;;
23952;SDS011;12163;49.316;6.092;2022-11-13T16:05:08;4.68;;;2.72;;
23952;SDS011;12163;49.316;6.092;2022-11-13T16:07:35;5.13;;;3.05;;
23952;SDS011;12163;49.316;6.092;2022-11-13T16:10:10;4.88;;;3.10;;
23952;SDS011;12163;49.316;6.092;2022-11-13T16:12:36;6.90;;;3.25;;
23952;SDS011;12163;49.316;6.092;2022-11-13T16:15:03;4.95;;;3.30;;
23952;SDS011;12163;49.316;6.092;2022-11-13T16:17:30;4.75;;;3.15;;
23952;SDS011;12163;49.316;6.092;2022-11-13T16:20:03;4.78;;;2.80;;
23952;SDS011;12163;49.316;6.092;2022-11-13T16:22:33;5.03;;;3.05;;
23952;SDS011;12163;49.316;6.092;2022-11-13T16:24:59;5.75;;;2.75;;
23952;SDS011;12163;49.316;6.092;2022-11-13T16:27:29;5.88;;;2.60;;